sensor_id;sensor_type;location;lat;lon;timestamp;P1;durP1;ratioP1;P2;durP2;ratioP2
23680;SDS011;62915;50.832;4.462;2023-06-14T00:00:07;7.72;;;6.22;;
23680;SDS011;62915;50.832;4.462;2023-06-14T00:02:40;10.60;;;6.63;;
23680;SDS011;62915;50.832;4.462;2023-06-14T00:07:43;9.50;;;6.63;;
23680;SDS011;62915;50.832;4.462;2023-06-14T00:10:13;10.43;;;6.93;;
23680;SDS011;62915;50.832;4.462;2023-06-14T00:12:56;9.10;;;5.93;;
23680;SDS011;62915;50.832;4.462;2023-06-14T00:15:23;11.35;;;7.05;;
23680;SDS011;62915;50.832;4.462;2023-06-14T00:17:52;8.02;;;6.72;;
23680;SDS011;62915;50.832;4.462;2023-06-14T00:20:20;8.02;;;6.65;;
23680;SDS011;62915;50.832;4.462;2023-06-14T00:22:49;7.13;;;5.72;;
23680;SDS011;62915;50.832;4.462;2023-06-14T00:25:15;7.00;;;6.30;;
23680;SDS011;62915;50.832;4.462;2023-06-14T00:27:40;10.70;;;6.30;;
23680;SDS011;62915;50.832;4.462;2023-06-14T00:30:06;9.38;;;6.75;;
23680;SDS011;62915;50.832;4.462;2023-06-14T00:32:43;7.72;;;6.22;;
23680;SDS011;62915;50.832;4.462;2023-06-14T00:35:09;9.20;;;6.60;;
23680;SDS011;62915;50.832;4.462;2023-06-14T00:37:35;9.25;;;5.85;;
23680;SDS011;62915;50.832;4.462;2023-06-14T00:40:01;9.68;;;6.32;;
23680;SDS011;62915;50.832;4.462;2023-06-14T00:42:31;8.93;;;6.22;;
23680;SDS011;62915;50.832;4.462;2023-06-14T00:44:57;8.45;;;6.25;;
23680;SDS011;62915;50.832;4.462;2023-06-14T00:47:23;8.68;;;6.43;;
23680;SDS011;62915;50.832;4.462;2023-06-14T00:49:52;9.32;;;6.53;;
23680;SDS011;62915;50.832;4.462;2023-06-14T00:52:19;10.38;;;7.03;;
23680;SDS011;62915;50.832;4.462;2023-06-14T00:54:46;7.38;;;6.20;;
23680;SDS011;62915;50.832;4.462;2023-06-14T00:57:11;11.27;;;6.55;;
23680;SDS011;62915;50.832;4.462;2023-06-14T00:59:48;9.05;;;7.00;;
23680;SDS011;62915;50.832;4.462;2023-06-14T01:02:16;8.15;;;5.88;;
23680;SDS011;62915;50.832;4.462;2023-06-14T01:04:43;8.77;;;6.68;;
23680;SDS011;62915;50.832;4.462;2023-06-14T01:10:12;7.30;;;6.60;;
23680;SDS011;62915;50.832;4.462;2023-06-14T01:15:45;8.32;;;6.18;;
23680;SDS011;62915;50.832;4.462;2023-06-14T01:18:13;11.63;;;7.13;;
23680;SDS011;62915;50.832;4.462;2023-06-14T01:20:42;9.43;;;6.75;;
23680;SDS011;62915;50.832;4.462;2023-06-14T01:23:10;7.95;;;6.40;;
23680;SDS011;62915;50.832;4.462;2023-06-14T01:25:40;8.80;;;6.97;;
23680;SDS011;62915;50.832;4.462;2023-06-14T01:28:09;8.27;;;7.30;;
23680;SDS011;62915;50.832;4.462;2023-06-14T01:30:37;13.38;;;6.80;;
23680;SDS011;62915;50.832;4.462;2023-06-14T01:33:09;10.93;;;6.47;;
23680;SDS011;62915;50.832;4.462;2023-06-14T01:35:41;8.05;;;6.90;;
23680;SDS011;62915;50.832;4.462;2023-06-14T01:38:08;11.20;;;6.55;;
23680;SDS011;62915;50.832;4.462;2023-06-14T01:40:35;10.50;;;7.10;;
23680;SDS011;62915;50.832;4.462;2023-06-14T01:43:01;8.07;;;6.97;;
23680;SDS011;62915;50.832;4.462;2023-06-14T01:45:33;9.75;;;6.90;;
23680;SDS011;62915;50.832;4.462;2023-06-14T01:48:00;11.23;;;6.72;;
23680;SDS011;62915;50.832;4.462;2023-06-14T01:50:30;8.57;;;6.85;;
23680;SDS011;62915;50.832;4.462;2023-06-14T01:52:56;7.90;;;6.97;;
23680;SDS011;62915;50.832;4.462;2023-06-14T01:55:22;14.07;;;7.55;;
23680;SDS011;62915;50.832;4.462;2023-06-14T01:57:49;9.27;;;7.20;;
23680;SDS011;62915;50.832;4.462;2023-06-14T02:00:16;12.13;;;7.18;;
23680;SDS011;62915;50.832;4.462;2023-06-14T02:02:44;12.75;;;7.30;;
23680;SDS011;62915;50.832;4.462;2023-06-14T02:05:13;9.27;;;7.47;;
23680;SDS011;62915;50.832;4.462;2023-06-14T02:07:40;9.52;;;7.47;;
23680;SDS011;62915;50.832;4.462;2023-06-14T02:10:06;10.30;;;6.90;;
23680;SDS011;62915;50.832;4.462;2023-06-14T02:12:32;9.50;;;7.70;;
23680;SDS011;62915;50.832;4.462;2023-06-14T02:14:59;9.13;;;6.35;;
23680;SDS011;62915;50.832;4.462;2023-06-14T02:17:26;12.40;;;7.75;;
23680;SDS011;62915;50.832;4.462;2023-06-14T02:19:51;14.50;;;7.95;;
23680;SDS011;62915;50.832;4.462;2023-06-14T02:22:18;9.68;;;7.43;;
23680;SDS011;62915;50.832;4.462;2023-06-14T02:24:47;7.85;;;7.03;;
23680;SDS011;62915;50.832;4.462;2023-06-14T02:27:13;9.82;;;7.28;;
23680;SDS011;62915;50.832;4.462;2023-06-14T02:29:38;8.52;;;7.38;;
23680;SDS011;62915;50.832;4.462;2023-06-14T02:32:04;8.55;;;7.35;;
23680;SDS011;62915;50.832;4.462;2023-06-14T02:34:32;12.52;;;7.65;;
23680;SDS011;62915;50.832;4.462;2023-06-14T02:37:00;7.85;;;7.05;;
23680;SDS011;62915;50.832;4.462;2023-06-14T02:39:28;11.77;;;7.45;;
23680;SDS011;62915;50.832;4.462;2023-06-14T02:41:53;9.25;;;7.45;;
23680;SDS011;62915;50.832;4.462;2023-06-14T02:44:19;9.63;;;7.72;;
23680;SDS011;62915;50.832;4.462;2023-06-14T02:46:50;12.70;;;8.23;;
23680;SDS011;62915;50.832;4.462;2023-06-14T02:49:18;10.93;;;7.78;;
23680;SDS011;62915;50.832;4.462;2023-06-14T02:51:44;10.82;;;7.60;;
23680;SDS011;62915;50.832;4.462;2023-06-14T02:54:10;9.48;;;7.57;;
23680;SDS011;62915;50.832;4.462;2023-06-14T02:56:36;10.95;;;7.95;;
23680;SDS011;62915;50.832;4.462;2023-06-14T02:59:01;9.00;;;8.10;;
23680;SDS011;62915;50.832;4.462;2023-06-14T03:01:27;15.27;;;8.38;;
23680;SDS011;62915;50.832;4.462;2023-06-14T03:04:02;12.35;;;7.90;;
23680;SDS011;62915;50.832;4.462;2023-06-14T03:06:29;12.23;;;8.07;;
23680;SDS011;62915;50.832;4.462;2023-06-14T03:09:00;9.00;;;8.13;;
23680;SDS011;62915;50.832;4.462;2023-06-14T03:11:29;9.85;;;8.30;;
23680;SDS011;62915;50.832;4.462;2023-06-14T03:13:55;12.90;;;8.68;;
23680;SDS011;62915;50.832;4.462;2023-06-14T03:16:22;12.98;;;8.38;;
23680;SDS011;62915;50.832;4.462;2023-06-14T03:18:49;10.60;;;8.15;;
23680;SDS011;62915;50.832;4.462;2023-06-14T03:21:16;12.43;;;8.13;;
23680;SDS011;62915;50.832;4.462;2023-06-14T03:23:43;15.93;;;8.80;;
23680;SDS011;62915;50.832;4.462;2023-06-14T03:26:09;11.27;;;8.50;;
23680;SDS011;62915;50.832;4.462;2023-06-14T03:28:39;11.85;;;8.13;;
23680;SDS011;62915;50.832;4.462;2023-06-14T03:31:05;9.90;;;8.35;;
23680;SDS011;62915;50.832;4.462;2023-06-14T03:33:31;15.73;;;9.18;;
23680;SDS011;62915;50.832;4.462;2023-06-14T03:36:01;10.50;;;8.18;;
23680;SDS011;62915;50.832;4.462;2023-06-14T03:38:34;12.00;;;8.23;;
23680;SDS011;62915;50.832;4.462;2023-06-14T03:41:00;10.65;;;8.40;;
23680;SDS011;62915;50.832;4.462;2023-06-14T03:43:27;9.20;;;8.10;;
23680;SDS011;62915;50.832;4.462;2023-06-14T03:45:53;9.77;;;8.48;;
23680;SDS011;62915;50.832;4.462;2023-06-14T03:48:18;12.52;;;8.43;;
23680;SDS011;62915;50.832;4.462;2023-06-14T03:50:44;13.20;;;8.90;;
23680;SDS011;62915;50.832;4.462;2023-06-14T03:53:11;10.93;;;8.43;;
23680;SDS011;62915;50.832;4.462;2023-06-14T03:55:36;10.95;;;8.95;;
23680;SDS011;62915;50.832;4.462;2023-06-14T03:58:03;11.27;;;8.38;;
23680;SDS011;62915;50.832;4.462;2023-06-14T04:00:29;9.25;;;8.30;;
23680;SDS011;62915;50.832;4.462;2023-06-14T04:02:57;12.30;;;9.15;;
23680;SDS011;62915;50.832;4.462;2023-06-14T04:05:22;11.65;;;8.82;;
23680;SDS011;62915;50.832;4.462;2023-06-14T04:07:51;9.88;;;8.85;;
23680;SDS011;62915;50.832;4.462;2023-06-14T04:10:17;11.35;;;8.60;;
23680;SDS011;62915;50.832;4.462;2023-06-14T04:12:45;10.80;;;8.45;;
23680;SDS011;62915;50.832;4.462;2023-06-14T04:17:40;9.93;;;8.00;;
23680;SDS011;62915;50.832;4.462;2023-06-14T04:20:06;12.13;;;8.77;;
23680;SDS011;62915;50.832;4.462;2023-06-14T04:22:34;11.85;;;9.10;;
23680;SDS011;62915;50.832;4.462;2023-06-14T04:25:01;15.52;;;8.85;;
23680;SDS011;62915;50.832;4.462;2023-06-14T04:27:27;11.23;;;8.35;;
23680;SDS011;62915;50.832;4.462;2023-06-14T04:29:55;12.43;;;9.13;;
23680;SDS011;62915;50.832;4.462;2023-06-14T04:32:27;11.00;;;8.73;;
23680;SDS011;62915;50.832;4.462;2023-06-14T04:34:57;12.02;;;8.38;;
23680;SDS011;62915;50.832;4.462;2023-06-14T04:37:24;13.52;;;8.65;;
23680;SDS011;62915;50.832;4.462;2023-06-14T04:39:55;13.68;;;8.73;;
23680;SDS011;62915;50.832;4.462;2023-06-14T04:42:23;14.48;;;8.43;;
23680;SDS011;62915;50.832;4.462;2023-06-14T04:45:23;11.27;;;9.18;;
23680;SDS011;62915;50.832;4.462;2023-06-14T04:47:49;10.40;;;8.30;;
23680;SDS011;62915;50.832;4.462;2023-06-14T04:51:00;15.25;;;9.10;;
23680;SDS011;62915;50.832;4.462;2023-06-14T04:54:11;14.23;;;9.02;;
23680;SDS011;62915;50.832;4.462;2023-06-14T04:59:53;15.30;;;9.18;;
23680;SDS011;62915;50.832;4.462;2023-06-14T05:02:53;9.77;;;8.40;;
23680;SDS011;62915;50.832;4.462;2023-06-14T05:05:52;13.02;;;9.07;;
23680;SDS011;62915;50.832;4.462;2023-06-14T05:08:42;13.00;;;9.00;;
23680;SDS011;62915;50.832;4.462;2023-06-14T05:11:07;11.80;;;9.13;;
23680;SDS011;62915;50.832;4.462;2023-06-14T05:13:33;16.48;;;8.88;;
23680;SDS011;62915;50.832;4.462;2023-06-14T05:15:59;15.20;;;9.18;;
23680;SDS011;62915;50.832;4.462;2023-06-14T05:18:25;12.35;;;9.80;;
23680;SDS011;62915;50.832;4.462;2023-06-14T05:20:51;15.45;;;9.25;;
23680;SDS011;62915;50.832;4.462;2023-06-14T05:23:19;13.57;;;8.80;;
23680;SDS011;62915;50.832;4.462;2023-06-14T05:25:45;10.77;;;8.48;;
23680;SDS011;62915;50.832;4.462;2023-06-14T05:28:11;12.35;;;9.40;;
23680;SDS011;62915;50.832;4.462;2023-06-14T05:30:38;16.20;;;9.38;;
23680;SDS011;62915;50.832;4.462;2023-06-14T05:33:05;25.60;;;9.40;;
23680;SDS011;62915;50.832;4.462;2023-06-14T05:35:31;14.75;;;8.70;;
23680;SDS011;62915;50.832;4.462;2023-06-14T05:37:57;15.32;;;9.13;;
23680;SDS011;62915;50.832;4.462;2023-06-14T05:40:22;19.35;;;9.57;;
23680;SDS011;62915;50.832;4.462;2023-06-14T05:42:48;17.95;;;13.07;;
23680;SDS011;62915;50.832;4.462;2023-06-14T05:45:16;20.52;;;10.20;;
23680;SDS011;62915;50.832;4.462;2023-06-14T05:47:42;16.63;;;10.15;;
23680;SDS011;62915;50.832;4.462;2023-06-14T05:50:08;17.20;;;10.02;;
23680;SDS011;62915;50.832;4.462;2023-06-14T05:52:34;16.30;;;10.25;;
23680;SDS011;62915;50.832;4.462;2023-06-14T05:55:01;15.77;;;8.98;;
23680;SDS011;62915;50.832;4.462;2023-06-14T05:57:28;20.30;;;9.05;;
23680;SDS011;62915;50.832;4.462;2023-06-14T05:59:54;16.00;;;9.70;;
23680;SDS011;62915;50.832;4.462;2023-06-14T06:02:20;17.00;;;10.13;;
23680;SDS011;62915;50.832;4.462;2023-06-14T06:04:46;19.25;;;9.50;;
23680;SDS011;62915;50.832;4.462;2023-06-14T06:07:11;15.00;;;9.00;;
23680;SDS011;62915;50.832;4.462;2023-06-14T06:09:37;13.63;;;9.70;;
23680;SDS011;62915;50.832;4.462;2023-06-14T06:12:05;11.23;;;9.52;;
23680;SDS011;62915;50.832;4.462;2023-06-14T06:14:31;12.90;;;9.30;;
23680;SDS011;62915;50.832;4.462;2023-06-14T06:16:57;15.88;;;8.88;;
23680;SDS011;62915;50.832;4.462;2023-06-14T06:19:24;14.70;;;9.55;;
23680;SDS011;62915;50.832;4.462;2023-06-14T06:21:50;15.88;;;11.10;;
23680;SDS011;62915;50.832;4.462;2023-06-14T06:24:16;15.18;;;9.35;;
23680;SDS011;62915;50.832;4.462;2023-06-14T06:26:42;16.67;;;9.25;;
23680;SDS011;62915;50.832;4.462;2023-06-14T06:29:07;10.13;;;7.82;;
23680;SDS011;62915;50.832;4.462;2023-06-14T06:31:33;11.85;;;8.70;;
23680;SDS011;62915;50.832;4.462;2023-06-14T06:33:59;11.80;;;8.77;;
23680;SDS011;62915;50.832;4.462;2023-06-14T06:36:25;12.40;;;8.88;;
23680;SDS011;62915;50.832;4.462;2023-06-14T06:38:51;18.92;;;9.02;;
23680;SDS011;62915;50.832;4.462;2023-06-14T06:41:16;14.52;;;9.18;;
23680;SDS011;62915;50.832;4.462;2023-06-14T06:43:43;13.35;;;9.00;;
23680;SDS011;62915;50.832;4.462;2023-06-14T06:46:09;10.27;;;8.35;;
23680;SDS011;62915;50.832;4.462;2023-06-14T06:48:36;11.73;;;8.90;;
23680;SDS011;62915;50.832;4.462;2023-06-14T06:51:02;18.33;;;8.65;;
23680;SDS011;62915;50.832;4.462;2023-06-14T06:53:28;14.82;;;8.38;;
23680;SDS011;62915;50.832;4.462;2023-06-14T06:55:53;16.58;;;9.07;;
23680;SDS011;62915;50.832;4.462;2023-06-14T06:58:19;12.77;;;8.70;;
23680;SDS011;62915;50.832;4.462;2023-06-14T07:00:47;12.00;;;8.90;;
23680;SDS011;62915;50.832;4.462;2023-06-14T07:03:12;10.93;;;8.57;;
23680;SDS011;62915;50.832;4.462;2023-06-14T07:05:38;10.68;;;8.38;;
23680;SDS011;62915;50.832;4.462;2023-06-14T07:08:04;10.50;;;8.35;;
23680;SDS011;62915;50.832;4.462;2023-06-14T07:10:31;9.45;;;8.35;;
23680;SDS011;62915;50.832;4.462;2023-06-14T07:12:57;14.95;;;8.40;;
23680;SDS011;62915;50.832;4.462;2023-06-14T07:15:23;10.82;;;8.48;;
23680;SDS011;62915;50.832;4.462;2023-06-14T07:17:49;18.05;;;8.15;;
23680;SDS011;62915;50.832;4.462;2023-06-14T07:20:16;14.40;;;8.85;;
23680;SDS011;62915;50.832;4.462;2023-06-14T07:22:42;12.27;;;8.55;;
23680;SDS011;62915;50.832;4.462;2023-06-14T07:25:11;15.48;;;8.10;;
23680;SDS011;62915;50.832;4.462;2023-06-14T07:27:41;11.73;;;8.63;;
23680;SDS011;62915;50.832;4.462;2023-06-14T07:30:08;11.90;;;7.53;;
23680;SDS011;62915;50.832;4.462;2023-06-14T07:32:34;8.95;;;8.00;;
23680;SDS011;62915;50.832;4.462;2023-06-14T07:35:01;16.77;;;8.23;;
23680;SDS011;62915;50.832;4.462;2023-06-14T07:37:26;19.63;;;8.75;;
23680;SDS011;62915;50.832;4.462;2023-06-14T07:39:52;41.28;;;20.17;;
23680;SDS011;62915;50.832;4.462;2023-06-14T07:42:18;11.98;;;8.27;;
23680;SDS011;62915;50.832;4.462;2023-06-14T07:44:45;11.20;;;7.57;;
23680;SDS011;62915;50.832;4.462;2023-06-14T07:47:10;10.25;;;7.50;;
23680;SDS011;62915;50.832;4.462;2023-06-14T07:49:36;12.35;;;7.40;;
23680;SDS011;62915;50.832;4.462;2023-06-14T07:52:02;10.18;;;7.53;;
23680;SDS011;62915;50.832;4.462;2023-06-14T07:54:30;19.67;;;7.55;;
23680;SDS011;62915;50.832;4.462;2023-06-14T07:56:56;12.82;;;7.63;;
23680;SDS011;62915;50.832;4.462;2023-06-14T07:59:23;16.88;;;8.32;;
23680;SDS011;62915;50.832;4.462;2023-06-14T08:01:49;15.48;;;8.10;;
23680;SDS011;62915;50.832;4.462;2023-06-14T08:04:15;9.20;;;7.53;;
23680;SDS011;62915;50.832;4.462;2023-06-14T08:06:41;11.20;;;7.75;;
23680;SDS011;62915;50.832;4.462;2023-06-14T08:09:10;10.55;;;7.63;;
23680;SDS011;62915;50.832;4.462;2023-06-14T08:11:37;13.75;;;7.75;;
23680;SDS011;62915;50.832;4.462;2023-06-14T08:14:03;15.45;;;8.13;;
23680;SDS011;62915;50.832;4.462;2023-06-14T08:16:30;18.25;;;7.88;;
23680;SDS011;62915;50.832;4.462;2023-06-14T08:18:56;19.38;;;9.10;;
23680;SDS011;62915;50.832;4.462;2023-06-14T08:21:21;12.32;;;8.23;;
23680;SDS011;62915;50.832;4.462;2023-06-14T08:23:47;11.95;;;8.02;;
23680;SDS011;62915;50.832;4.462;2023-06-14T08:26:13;11.38;;;8.38;;
23680;SDS011;62915;50.832;4.462;2023-06-14T08:28:39;11.38;;;7.88;;
23680;SDS011;62915;50.832;4.462;2023-06-14T08:31:05;39.30;;;20.30;;
23680;SDS011;62915;50.832;4.462;2023-06-14T08:33:30;19.83;;;9.10;;
23680;SDS011;62915;50.832;4.462;2023-06-14T08:35:58;14.27;;;8.40;;
23680;SDS011;62915;50.832;4.462;2023-06-14T08:38:23;9.07;;;7.93;;
23680;SDS011;62915;50.832;4.462;2023-06-14T08:40:50;17.17;;;8.23;;
23680;SDS011;62915;50.832;4.462;2023-06-14T08:43:17;10.20;;;8.63;;
23680;SDS011;62915;50.832;4.462;2023-06-14T08:45:44;15.13;;;8.90;;
23680;SDS011;62915;50.832;4.462;2023-06-14T08:48:13;11.35;;;8.30;;
23680;SDS011;62915;50.832;4.462;2023-06-14T08:50:42;19.83;;;8.27;;
23680;SDS011;62915;50.832;4.462;2023-06-14T08:53:11;9.68;;;8.38;;
23680;SDS011;62915;50.832;4.462;2023-06-14T08:55:45;14.88;;;8.43;;
23680;SDS011;62915;50.832;4.462;2023-06-14T08:58:12;18.20;;;9.20;;
23680;SDS011;62915;50.832;4.462;2023-06-14T09:00:42;11.68;;;8.60;;
23680;SDS011;62915;50.832;4.462;2023-06-14T09:03:09;16.00;;;9.15;;
23680;SDS011;62915;50.832;4.462;2023-06-14T09:05:38;12.10;;;8.65;;
23680;SDS011;62915;50.832;4.462;2023-06-14T09:08:04;11.98;;;8.20;;
23680;SDS011;62915;50.832;4.462;2023-06-14T09:10:31;11.48;;;7.68;;
23680;SDS011;62915;50.832;4.462;2023-06-14T09:13:02;12.25;;;8.60;;
23680;SDS011;62915;50.832;4.462;2023-06-14T09:15:28;14.00;;;9.20;;
23680;SDS011;62915;50.832;4.462;2023-06-14T09:17:54;16.15;;;8.45;;
23680;SDS011;62915;50.832;4.462;2023-06-14T09:20:20;11.70;;;7.88;;
23680;SDS011;62915;50.832;4.462;2023-06-14T09:22:48;15.25;;;8.45;;
23680;SDS011;62915;50.832;4.462;2023-06-14T09:25:14;15.07;;;8.07;;
23680;SDS011;62915;50.832;4.462;2023-06-14T09:27:40;14.93;;;8.50;;
23680;SDS011;62915;50.832;4.462;2023-06-14T09:30:08;22.90;;;20.38;;
23680;SDS011;62915;50.832;4.462;2023-06-14T09:32:38;16.05;;;9.65;;
23680;SDS011;62915;50.832;4.462;2023-06-14T09:35:08;12.73;;;9.43;;
23680;SDS011;62915;50.832;4.462;2023-06-14T09:37:34;18.27;;;8.48;;
23680;SDS011;62915;50.832;4.462;2023-06-14T09:40:02;12.88;;;8.05;;
23680;SDS011;62915;50.832;4.462;2023-06-14T09:42:28;18.08;;;10.40;;
23680;SDS011;62915;50.832;4.462;2023-06-14T09:44:55;17.30;;;14.07;;
23680;SDS011;62915;50.832;4.462;2023-06-14T09:47:23;13.65;;;8.80;;
23680;SDS011;62915;50.832;4.462;2023-06-14T09:49:50;10.80;;;8.43;;
23680;SDS011;62915;50.832;4.462;2023-06-14T09:52:17;14.13;;;9.52;;
23680;SDS011;62915;50.832;4.462;2023-06-14T09:54:44;20.90;;;8.52;;
23680;SDS011;62915;50.832;4.462;2023-06-14T09:57:13;16.67;;;8.50;;
23680;SDS011;62915;50.832;4.462;2023-06-14T09:59:46;10.55;;;7.88;;
23680;SDS011;62915;50.832;4.462;2023-06-14T10:04:52;16.65;;;8.05;;
23680;SDS011;62915;50.832;4.462;2023-06-14T10:07:23;14.70;;;8.18;;
23680;SDS011;62915;50.832;4.462;2023-06-14T10:09:52;11.70;;;7.25;;
23680;SDS011;62915;50.832;4.462;2023-06-14T10:12:19;10.80;;;7.70;;
23680;SDS011;62915;50.832;4.462;2023-06-14T10:14:47;11.75;;;8.13;;
23680;SDS011;62915;50.832;4.462;2023-06-14T10:17:17;13.95;;;7.10;;
23680;SDS011;62915;50.832;4.462;2023-06-14T10:19:50;9.70;;;6.35;;
23680;SDS011;62915;50.832;4.462;2023-06-14T10:22:25;8.05;;;6.30;;
23680;SDS011;62915;50.832;4.462;2023-06-14T10:25:00;12.05;;;6.55;;
23680;SDS011;62915;50.832;4.462;2023-06-14T10:27:27;10.73;;;6.57;;
23680;SDS011;62915;50.832;4.462;2023-06-14T10:32:21;7.75;;;5.80;;
23680;SDS011;62915;50.832;4.462;2023-06-14T10:34:56;14.43;;;6.22;;
23680;SDS011;62915;50.832;4.462;2023-06-14T10:37:23;14.85;;;6.32;;
23680;SDS011;62915;50.832;4.462;2023-06-14T10:39:49;8.20;;;4.70;;
23680;SDS011;62915;50.832;4.462;2023-06-14T10:42:15;11.98;;;5.43;;
23680;SDS011;62915;50.832;4.462;2023-06-14T10:47:20;9.00;;;6.50;;
23680;SDS011;62915;50.832;4.462;2023-06-14T10:50:06;8.65;;;6.20;;
23680;SDS011;62915;50.832;4.462;2023-06-14T10:52:34;8.07;;;5.70;;
23680;SDS011;62915;50.832;4.462;2023-06-14T10:55:10;6.13;;;5.53;;
23680;SDS011;62915;50.832;4.462;2023-06-14T10:57:53;7.13;;;5.97;;
23680;SDS011;62915;50.832;4.462;2023-06-14T11:00:25;6.55;;;5.80;;
23680;SDS011;62915;50.832;4.462;2023-06-14T11:05:55;12.18;;;5.80;;
23680;SDS011;62915;50.832;4.462;2023-06-14T11:08:29;15.20;;;5.95;;
23680;SDS011;62915;50.832;4.462;2023-06-14T11:11:12;7.30;;;5.80;;
23680;SDS011;62915;50.832;4.462;2023-06-14T11:13:43;8.80;;;5.47;;
23680;SDS011;62915;50.832;4.462;2023-06-14T11:16:11;9.25;;;6.85;;
23680;SDS011;62915;50.832;4.462;2023-06-14T11:18:38;6.70;;;6.03;;
23680;SDS011;62915;50.832;4.462;2023-06-14T11:21:04;18.38;;;6.50;;
23680;SDS011;62915;50.832;4.462;2023-06-14T11:23:29;11.50;;;6.18;;
23680;SDS011;62915;50.832;4.462;2023-06-14T11:25:55;8.80;;;6.20;;
23680;SDS011;62915;50.832;4.462;2023-06-14T11:28:20;11.52;;;6.28;;
23680;SDS011;62915;50.832;4.462;2023-06-14T11:30:48;9.82;;;5.70;;
23680;SDS011;62915;50.832;4.462;2023-06-14T11:33:17;15.43;;;6.18;;
23680;SDS011;62915;50.832;4.462;2023-06-14T11:35:43;8.77;;;6.40;;
23680;SDS011;62915;50.832;4.462;2023-06-14T11:38:10;11.85;;;7.30;;
23680;SDS011;62915;50.832;4.462;2023-06-14T11:40:37;11.48;;;6.18;;
23680;SDS011;62915;50.832;4.462;2023-06-14T11:43:03;14.57;;;6.10;;
23680;SDS011;62915;50.832;4.462;2023-06-14T11:45:29;8.20;;;5.50;;
23680;SDS011;62915;50.832;4.462;2023-06-14T11:47:56;11.93;;;5.88;;
23680;SDS011;62915;50.832;4.462;2023-06-14T11:50:22;11.57;;;5.78;;
23680;SDS011;62915;50.832;4.462;2023-06-14T11:52:58;7.40;;;6.07;;
23680;SDS011;62915;50.832;4.462;2023-06-14T11:55:28;10.80;;;5.93;;
23680;SDS011;62915;50.832;4.462;2023-06-14T11:57:54;6.60;;;5.97;;
23680;SDS011;62915;50.832;4.462;2023-06-14T12:00:24;10.43;;;5.22;;
23680;SDS011;62915;50.832;4.462;2023-06-14T12:02:53;11.40;;;5.70;;
23680;SDS011;62915;50.832;4.462;2023-06-14T12:05:21;12.20;;;6.63;;
23680;SDS011;62915;50.832;4.462;2023-06-14T12:07:47;9.48;;;6.47;;
23680;SDS011;62915;50.832;4.462;2023-06-14T12:10:13;9.95;;;6.30;;
23680;SDS011;62915;50.832;4.462;2023-06-14T12:12:40;14.02;;;6.15;;
23680;SDS011;62915;50.832;4.462;2023-06-14T12:15:07;10.32;;;6.00;;
23680;SDS011;62915;50.832;4.462;2023-06-14T12:17:36;10.65;;;5.72;;
23680;SDS011;62915;50.832;4.462;2023-06-14T12:20:08;14.35;;;5.53;;
23680;SDS011;62915;50.832;4.462;2023-06-14T12:22:39;11.15;;;5.32;;
23680;SDS011;62915;50.832;4.462;2023-06-14T12:25:35;6.97;;;5.25;;
23680;SDS011;62915;50.832;4.462;2023-06-14T12:28:08;13.05;;;5.82;;
23680;SDS011;62915;50.832;4.462;2023-06-14T12:30:35;7.47;;;5.80;;
23680;SDS011;62915;50.832;4.462;2023-06-14T12:33:02;10.73;;;5.20;;
23680;SDS011;62915;50.832;4.462;2023-06-14T12:35:28;8.02;;;6.15;;
23680;SDS011;62915;50.832;4.462;2023-06-14T12:37:54;8.70;;;5.63;;
23680;SDS011;62915;50.832;4.462;2023-06-14T12:40:19;10.75;;;5.85;;
23680;SDS011;62915;50.832;4.462;2023-06-14T12:42:45;10.95;;;5.45;;
23680;SDS011;62915;50.832;4.462;2023-06-14T12:45:13;10.55;;;5.32;;
23680;SDS011;62915;50.832;4.462;2023-06-14T12:47:40;8.63;;;4.78;;
23680;SDS011;62915;50.832;4.462;2023-06-14T12:50:06;12.60;;;6.00;;
23680;SDS011;62915;50.832;4.462;2023-06-14T12:52:32;11.70;;;5.93;;
23680;SDS011;62915;50.832;4.462;2023-06-14T12:55:03;14.27;;;5.60;;
23680;SDS011;62915;50.832;4.462;2023-06-14T12:57:29;6.38;;;5.10;;
23680;SDS011;62915;50.832;4.462;2023-06-14T12:59:55;8.00;;;5.32;;
23680;SDS011;62915;50.832;4.462;2023-06-14T13:02:21;12.02;;;5.40;;
23680;SDS011;62915;50.832;4.462;2023-06-14T13:04:48;6.85;;;4.85;;
23680;SDS011;62915;50.832;4.462;2023-06-14T13:07:14;11.73;;;5.50;;
23680;SDS011;62915;50.832;4.462;2023-06-14T13:09:40;10.60;;;5.32;;
23680;SDS011;62915;50.832;4.462;2023-06-14T13:12:07;8.70;;;4.90;;
23680;SDS011;62915;50.832;4.462;2023-06-14T13:14:33;6.10;;;4.45;;
23680;SDS011;62915;50.832;4.462;2023-06-14T13:16:59;6.72;;;4.28;;
23680;SDS011;62915;50.832;4.462;2023-06-14T13:19:25;9.48;;;4.63;;
23680;SDS011;62915;50.832;4.462;2023-06-14T13:21:50;8.57;;;4.55;;
23680;SDS011;62915;50.832;4.462;2023-06-14T13:24:16;7.00;;;4.43;;
23680;SDS011;62915;50.832;4.462;2023-06-14T13:26:42;5.82;;;3.90;;
23680;SDS011;62915;50.832;4.462;2023-06-14T13:29:08;9.85;;;4.20;;
23680;SDS011;62915;50.832;4.462;2023-06-14T13:31:33;10.13;;;4.05;;
23680;SDS011;62915;50.832;4.462;2023-06-14T13:33:59;7.45;;;4.20;;
23680;SDS011;62915;50.832;4.462;2023-06-14T13:36:25;8.75;;;3.90;;
23680;SDS011;62915;50.832;4.462;2023-06-14T13:38:51;5.13;;;4.25;;
23680;SDS011;62915;50.832;4.462;2023-06-14T13:41:17;6.88;;;4.20;;
23680;SDS011;62915;50.832;4.462;2023-06-14T13:43:43;7.60;;;4.53;;
23680;SDS011;62915;50.832;4.462;2023-06-14T13:46:09;5.80;;;4.05;;
23680;SDS011;62915;50.832;4.462;2023-06-14T13:48:34;7.50;;;4.03;;
23680;SDS011;62915;50.832;4.462;2023-06-14T13:51:00;8.65;;;3.65;;
23680;SDS011;62915;50.832;4.462;2023-06-14T13:53:26;8.60;;;3.80;;
23680;SDS011;62915;50.832;4.462;2023-06-14T13:55:52;7.88;;;3.88;;
23680;SDS011;62915;50.832;4.462;2023-06-14T13:58:17;5.22;;;3.78;;
23680;SDS011;62915;50.832;4.462;2023-06-14T14:00:44;9.50;;;6.95;;
23680;SDS011;62915;50.832;4.462;2023-06-14T14:03:10;5.97;;;3.78;;
23680;SDS011;62915;50.832;4.462;2023-06-14T14:05:36;5.32;;;3.58;;
23680;SDS011;62915;50.832;4.462;2023-06-14T14:08:02;6.30;;;3.03;;
23680;SDS011;62915;50.832;4.462;2023-06-14T14:10:28;10.93;;;3.40;;
23680;SDS011;62915;50.832;4.462;2023-06-14T14:12:54;6.10;;;3.47;;
23680;SDS011;62915;50.832;4.462;2023-06-14T14:15:20;6.03;;;2.80;;
23680;SDS011;62915;50.832;4.462;2023-06-14T14:17:46;3.50;;;3.15;;
23680;SDS011;62915;50.832;4.462;2023-06-14T14:20:12;4.65;;;2.88;;
23680;SDS011;62915;50.832;4.462;2023-06-14T14:22:40;5.00;;;2.70;;
23680;SDS011;62915;50.832;4.462;2023-06-14T14:25:07;7.72;;;3.83;;
23680;SDS011;62915;50.832;4.462;2023-06-14T14:27:33;10.98;;;4.07;;
23680;SDS011;62915;50.832;4.462;2023-06-14T14:29:59;7.20;;;2.60;;
23680;SDS011;62915;50.832;4.462;2023-06-14T14:32:24;8.68;;;2.40;;
23680;SDS011;62915;50.832;4.462;2023-06-14T14:34:50;4.93;;;2.53;;
23680;SDS011;62915;50.832;4.462;2023-06-14T14:37:16;2.45;;;2.22;;
23680;SDS011;62915;50.832;4.462;2023-06-14T14:39:43;3.08;;;2.08;;
23680;SDS011;62915;50.832;4.462;2023-06-14T14:42:10;6.40;;;2.40;;
23680;SDS011;62915;50.832;4.462;2023-06-14T14:44:37;4.63;;;2.50;;
23680;SDS011;62915;50.832;4.462;2023-06-14T14:47:03;3.50;;;2.13;;
23680;SDS011;62915;50.832;4.462;2023-06-14T14:49:30;5.20;;;1.88;;
23680;SDS011;62915;50.832;4.462;2023-06-14T14:51:56;4.22;;;2.25;;
23680;SDS011;62915;50.832;4.462;2023-06-14T14:54:22;3.45;;;1.98;;
23680;SDS011;62915;50.832;4.462;2023-06-14T14:56:48;2.58;;;2.10;;
23680;SDS011;62915;50.832;4.462;2023-06-14T14:59:14;8.68;;;3.10;;
23680;SDS011;62915;50.832;4.462;2023-06-14T15:01:39;8.52;;;2.63;;
23680;SDS011;62915;50.832;4.462;2023-06-14T15:04:05;7.93;;;2.70;;
23680;SDS011;62915;50.832;4.462;2023-06-14T15:06:31;6.13;;;2.50;;